Time;durP1;ratioP1;P1;durP2;ratioP2;P2;SDS_P1;SDS_P2;PMS_P1;PMS_P2;Temp;Humidity;BMP_temperature;BMP_pressure;BME280_temperature;BME280_humidity;BME280_pressure;Samples;Min_cycle;Max_cycle;Signal;HPM_P1;HPM_P2
2022/07/02 00:01:27;;;;;;;3.50;1.38;;;;;;;12.81;94.15;96197.19;5110479;28;20095;-67
2022/07/02 00:03:56;;;;;;;4.53;1.45;;;;;;;12.75;94.11;96192.50;5093018;28;20117;-67
2022/07/02 00:06:28;;;;;;;2.88;1.40;;;;;;;12.70;95.37;96203.47;5091842;28;20043;-67
2022/07/02 00:08:54;;;;;;;4.55;1.30;;;;;;;12.67;95.14;96201.13;5082951;28;20016;-67
2022/07/02 00:11:20;;;;;;;1.50;1.40;;;;;;;12.72;93.75;96203.34;5093993;28;20524;-68
2022/07/02 00:13:48;;;;;;;1.60;1.50;;;;;;;12.68;94.59;96202.78;5105486;28;20110;-67
2022/07/02 00:16:13;;;;;;;1.65;1.27;;;;;;;12.67;95.36;96210.84;5094125;28;20032;-67
2022/07/02 00:18:39;;;;;;;1.42;1.33;;;;;;;12.61;96.44;96206.97;5094642;28;20403;-67
2022/07/02 00:21:04;;;;;;;2.63;1.70;;;;;;;12.58;96.18;96207.25;5105660;28;20028;-67
2022/07/02 00:23:30;;;;;;;1.40;1.25;;;;;;;12.56;95.67;96211.84;5107365;28;20020;-67
2022/07/02 00:26:14;;;;;;;1.40;1.30;;;;;;;12.61;94.72;96207.81;5108007;28;20020;-67
2022/07/02 00:28:42;;;;;;;1.80;1.60;;;;;;;12.66;94.22;96210.03;5103206;28;20020;-67
2022/07/02 00:31:08;;;;;;;3.13;1.50;;;;;;;12.68;94.46;96218.63;5102839;28;20017;-67
2022/07/02 00:33:38;;;;;;;3.47;1.48;;;;;;;12.63;95.32;96215.59;5107880;28;20028;-68
2022/07/02 00:36:04;;;;;;;1.83;1.73;;;;;;;12.57;95.19;96216.13;5099694;28;20027;-67
2022/07/02 00:38:30;;;;;;;3.50;1.50;;;;;;;12.52;96.49;96218.38;5102280;28;20023;-67
2022/07/02 00:40:55;;;;;;;1.77;1.67;;;;;;;12.45;96.10;96221.59;5105679;28;20402;-67
2022/07/02 00:43:22;;;;;;;2.45;1.50;;;;;;;12.39;96.25;96214.25;5105533;28;20027;-67
2022/07/02 00:45:48;;;;;;;3.90;1.30;;;;;;;12.34;96.24;96219.09;5105312;28;20019;-67
2022/07/02 00:48:14;;;;;;;1.48;1.38;;;;;;;12.32;97.06;96218.38;5105143;28;20493;-67
2022/07/02 00:50:39;;;;;;;1.55;1.30;;;;;;;12.35;96.22;96222.56;5102682;28;20049;-67
2022/07/02 00:53:05;;;;;;;1.25;1.25;;;;;;;12.31;96.49;96217.56;5081087;28;20024;-67
2022/07/02 00:55:30;;;;;;;1.40;1.30;;;;;;;12.28;98.05;96219.66;5090905;28;20031;-67
2022/07/02 00:57:57;;;;;;;1.40;1.40;;;;;;;12.28;97.11;96217.00;5080458;28;20044;-67
2022/07/02 01:00:22;;;;;;;1.50;1.10;;;;;;;12.23;96.11;96220.06;5095903;28;20033;-67
2022/07/02 01:02:49;;;;;;;1.55;1.17;;;;;;;12.21;96.06;96219.38;5082041;28;20368;-68
2022/07/02 01:05:16;;;;;;;1.70;1.60;;;;;;;12.18;97.55;96214.38;5084147;28;20032;-67
2022/07/02 01:10:16;;;;;;;1.33;1.33;;;;;;;12.14;97.64;96227.00;5082447;28;20024;-67
2022/07/02 01:10:43;;;;;;;3.03;1.40;;;;;;;12.17;96.61;96217.97;5083434;28;20039;-67
2022/07/02 01:13:10;;;;;;;1.45;1.35;;;;;;;12.12;97.81;96217.56;5081056;28;20688;-67
2022/07/02 01:15:38;;;;;;;1.63;1.52;;;;;;;12.11;97.14;96218.53;5084564;28;20037;-67
2022/07/02 01:18:03;;;;;;;2.25;1.40;;;;;;;12.11;96.74;96221.19;5077144;28;20078;-67
2022/07/02 01:20:29;;;;;;;1.83;1.70;;;;;;;12.13;97.31;96224.53;5067697;28;20399;-67
2022/07/02 01:22:54;;;;;;;1.70;1.60;;;;;;;12.08;97.92;96216.19;5080910;28;20032;-67
2022/07/02 01:25:20;;;;;;;1.40;1.30;;;;;;;12.09;97.49;96217.84;5086104;28;20062;-67
2022/07/02 01:27:45;;;;;;;2.05;1.40;;;;;;;12.05;96.73;96212.00;5081873;28;20376;-67
2022/07/02 01:30:11;;;;;;;1.67;1.50;;;;;;;12.01;97.30;96222.00;5083499;28;20032;-67
2022/07/02 01:32:36;;;;;;;2.42;1.50;;;;;;;11.99;97.24;96216.00;5085631;28;20487;-67
2022/07/02 01:35:08;;;;;;;2.40;1.80;;;;;;;11.94;98.54;96222.69;5082188;28;20028;-67
2022/07/02 01:37:36;;;;;;;2.47;1.85;;;;;;;11.93;97.78;96226.25;5085609;28;20118;-67
2022/07/02 01:40:02;;;;;;;2.38;1.60;;;;;;;11.93;96.87;96226.25;5080346;28;20048;-67
2022/07/02 01:42:28;;;;;;;1.30;1.30;;;;;;;11.95;97.44;96232.25;5082244;28;20058;-67
2022/07/02 01:44:53;;;;;;;2.28;1.48;;;;;;;11.93;97.35;96235.03;5076343;28;20028;-67
2022/07/02 01:47:18;;;;;;;2.40;1.50;;;;;;;11.92;98.72;96229.88;5084199;28;20044;-67
2022/07/02 01:49:44;;;;;;;4.20;1.40;;;;;;;11.93;97.88;96235.03;5081734;28;20503;-67
2022/07/02 01:52:09;;;;;;;1.25;1.25;;;;;;;11.87;98.50;96230.31;5078252;28;20402;-67
2022/07/02 01:54:35;;;;;;;2.53;1.30;;;;;;;11.80;99.26;96232.66;5098134;28;20454;-67
2022/07/02 01:57:01;;;;;;;1.50;1.40;;;;;;;11.80;98.62;96234.44;5089471;28;20040;-67
2022/07/02 01:59:26;;;;;;;1.42;1.33;;;;;;;11.88;97.46;96247.81;5086477;28;20067;-67
2022/07/02 02:01:52;;;;;;;1.40;1.35;;;;;;;11.92;96.47;96246.56;5086859;28;20434;-67
2022/07/02 02:04:17;;;;;;;1.40;1.30;;;;;;;11.86;97.30;96239.19;5087646;28;20499;-67
2022/07/02 02:06:43;;;;;;;2.97;1.33;;;;;;;11.78;98.02;96244.28;5079118;28;20020;-67
2022/07/02 02:09:09;;;;;;;2.40;1.40;;;;;;;11.74;97.25;96244.56;5085676;28;20048;-67
2022/07/02 02:11:34;;;;;;;1.50;1.40;;;;;;;11.71;97.58;96239.56;5080699;28;20028;-67
2022/07/02 02:14:00;;;;;;;4.05;1.55;;;;;;;11.68;98.29;96245.13;5078192;28;20111;-67
2022/07/02 02:16:27;;;;;;;2.70;1.70;;;;;;;11.67;98.29;96240.81;5078364;28;20026;-67
2022/07/02 02:18:53;;;;;;;7.72;1.58;;;;;;;11.62;99.35;96237.75;5081131;28;20025;-67
2022/07/02 02:21:19;;;;;;;1.60;1.50;;;;;;;11.60;99.40;96237.03;5089155;28;20031;-67
2022/07/02 02:23:44;;;;;;;1.55;1.52;;;;;;;11.55;100.00;96231.34;5097230;28;20023;-68
2022/07/02 02:26:10;;;;;;;1.30;1.30;;;;;;;11.49;100.00;96234.50;5084397;28;20065;-67
2022/07/02 02:28:35;;;;;;;1.58;1.48;;;;;;;11.43;100.00;96241.16;5085762;28;20441;-67
2022/07/02 02:31:01;;;;;;;1.45;1.40;;;;;;;11.44;100.00;96240.19;5085259;28;20034;-67
2022/07/02 02:33:26;;;;;;;1.67;1.20;;;;;;;11.46;99.90;96243.50;5082811;28;20470;-67
2022/07/02 02:35:51;;;;;;;1.60;1.50;;;;;;;11.45;100.00;96247.97;5092525;28;20514;-67
2022/07/02 02:38:17;;;;;;;3.20;2.00;;;;;;;11.53;99.49;96251.72;5087035;28;20028;-67
2022/07/02 02:40:42;;;;;;;3.72;2.20;;;;;;;11.54;99.02;96256.03;5081132;28;20394;-67
2022/07/02 02:43:08;;;;;;;2.17;1.98;;;;;;;11.46;100.00;96243.50;5074341;28;20056;-67
2022/07/02 02:45:33;;;;;;;1.88;1.77;;;;;;;11.41;99.81;96257.13;5083782;28;20075;-67
2022/07/02 02:47:59;;;;;;;1.70;1.60;;;;;;;11.43;99.74;96249.91;5089115;28;20047;-67
2022/07/02 02:50:24;;;;;;;1.60;1.60;;;;;;;11.43;100.00;96257.81;5089580;28;20047;-67
2022/07/02 02:52:49;;;;;;;1.40;1.40;;;;;;;11.41;100.00;96251.84;5078614;28;20089;-68
2022/07/02 02:55:15;;;;;;;1.77;1.63;;;;;;;11.39;100.00;96248.50;5061300;28;20055;-67
2022/07/02 02:57:40;;;;;;;1.33;1.23;;;;;;;11.37;99.95;96253.06;5081900;28;20048;-67
2022/07/02 03:00:06;;;;;;;1.45;1.45;;;;;;;11.38;99.52;96252.09;5077540;28;20017;-67
2022/07/02 03:02:31;;;;;;;1.67;1.40;;;;;;;11.34;99.27;96250.69;5089670;28;20562;-67
2022/07/02 03:04:57;;;;;;;2.35;1.58;;;;;;;11.29;100.00;96252.91;5086686;28;20111;-67
2022/07/02 03:07:22;;;;;;;1.33;1.30;;;;;;;11.22;100.00;96247.31;5091184;28;20099;-67
2022/07/02 03:09:47;;;;;;;1.35;1.35;;;;;;;11.22;100.00;96247.31;5082174;28;20017;-67
2022/07/02 03:12:13;;;;;;;1.50;1.40;;;;;;;11.23;100.00;96243.72;5091411;28;20032;-67
2022/07/02 03:14:38;;;;;;;1.40;1.40;;;;;;;11.25;100.00;96243.59;5085211;28;20022;-67
2022/07/02 03:17:04;;;;;;;1.80;1.70;;;;;;;11.24;100.00;96239.28;5093653;28;20073;-67
2022/07/02 03:19:29;;;;;;;1.40;1.40;;;;;;;11.22;100.00;96241.22;5083005;28;20023;-68
2022/07/02 03:21:55;;;;;;;3.78;1.40;;;;;;;11.25;100.00;96239.13;5090225;28;20142;-67
2022/07/02 03:24:20;;;;;;;1.67;1.58;;;;;;;11.27;100.00;96245.13;5101206;28;20031;-67
2022/07/02 03:26:45;;;;;;;1.38;1.33;;;;;;;11.26;99.59;96234.72;5085331;28;20016;-66
2022/07/02 03:29:11;;;;;;;1.60;1.50;;;;;;;11.22;100.00;96225.41;5075315;28;20494;-68
2022/07/02 03:31:36;;;;;;;1.38;1.38;;;;;;;11.14;100.00;96226.88;5079998;28;20020;-67
2022/07/02 03:34:01;;;;;;;1.63;1.52;;;;;;;11.09;100.00;96226.47;5090382;28;20020;-67
2022/07/02 03:36:27;;;;;;;1.95;1.85;;;;;;;11.11;100.00;96228.97;5084409;28;20024;-68
2022/07/02 03:38:52;;;;;;;2.05;1.50;;;;;;;11.10;100.00;96238.66;5094151;28;20119;-67
2022/07/02 03:41:18;;;;;;;1.77;1.67;;;;;;;11.16;100.00;96227.63;5081421;28;20040;-67
2022/07/02 03:43:43;;;;;;;2.70;1.40;;;;;;;11.14;100.00;96232.16;5085136;28;20035;-67
2022/07/02 03:46:09;;;;;;;1.73;1.63;;;;;;;11.10;100.00;96232.56;5079228;28;20028;-67
2022/07/02 03:48:34;;;;;;;1.80;1.50;;;;;;;11.14;100.00;96231.34;5073158;28;20441;-67
2022/07/02 03:50:59;;;;;;;1.83;1.73;;;;;;;11.13;100.00;96232.31;5084850;28;20802;-67
2022/07/02 03:53:25;;;;;;;2.10;1.70;;;;;;;11.14;100.00;96228.72;5074948;28;20400;-68
2022/07/02 03:55:50;;;;;;;3.53;1.67;;;;;;;11.11;100.00;96229.78;5087493;28;20032;-67
2022/07/02 03:58:16;;;;;;;3.50;1.60;;;;;;;11.10;100.00;96227.31;5091041;28;20073;-67
2022/07/02 04:00:41;;;;;;;5.50;5.00;;;;;;;11.08;100.00;96224.78;5083607;28;20020;-68
2022/07/02 04:03:07;;;;;;;3.50;1.70;;;;;;;11.17;100.00;96225.81;5076257;28;20020;-67
2022/07/02 04:05:32;;;;;;;2.50;2.22;;;;;;;11.14;100.00;96218.97;5074556;28;20035;-68
2022/07/02 04:07:57;;;;;;;1.90;1.80;;;;;;;11.20;100.00;96222.06;5079475;28;20112;-67
2022/07/02 04:10:23;;;;;;;1.77;1.42;;;;;;;11.20;100.00;96222.91;5080313;28;20020;-67
2022/07/02 04:12:48;;;;;;;2.55;1.75;;;;;;;11.20;100.00;96222.06;5073307;28;20027;-67
2022/07/02 04:15:14;;;;;;;2.45;1.50;;;;;;;11.20;100.00;96214.16;5081549;28;20051;-67
2022/07/02 04:17:39;;;;;;;1.55;1.48;;;;;;;11.20;100.00;96219.44;5085997;28;20027;-67
2022/07/02 04:20:05;;;;;;;5.53;1.60;;;;;;;11.20;100.00;96222.06;5080700;28;20065;-67
2022/07/02 04:22:31;;;;;;;1.48;1.48;;;;;;;11.20;100.00;96217.63;5073539;28;20032;-67
2022/07/02 04:24:56;;;;;;;1.60;1.40;;;;;;;11.22;100.00;96235.97;5076118;28;20165;-67
2022/07/02 04:27:21;;;;;;;1.65;1.60;;;;;;;11.21;100.00;96236.94;5079379;28;20694;-67
2022/07/02 04:29:47;;;;;;;2.25;1.60;;;;;;;11.20;100.00;96228.16;5080300;28;20099;-68
2022/07/02 04:32:13;;;;;;;1.58;1.48;;;;;;;11.20;100.00;96225.53;5081715;28;20117;-67
2022/07/02 04:34:38;;;;;;;1.65;1.55;;;;;;;11.19;100.00;96221.22;5084865;28;20024;-67
2022/07/02 04:37:04;;;;;;;1.40;1.40;;;;;;;11.18;100.00;96225.69;5089868;28;20042;-68
2022/07/02 04:39:29;;;;;;;4.40;1.65;;;;;;;11.21;100.00;96223.75;5090002;28;20037;-67
2022/07/02 04:41:55;;;;;;;1.65;1.60;;;;;;;11.17;100.00;96221.38;5089935;28;20020;-67
2022/07/02 04:44:20;;;;;;;1.77;1.67;;;;;;;11.18;100.00;96217.78;5089762;28;20028;-67
2022/07/02 04:46:46;;;;;;;1.70;1.60;;;;;;;11.15;100.00;96209.28;5089578;28;20077;-67
2022/07/02 04:49:11;;;;;;;1.60;1.50;;;;;;;11.16;100.00;96217.06;5089746;28;20020;-68
2022/07/02 04:51:36;;;;;;;1.80;1.70;;;;;;;11.18;100.00;96216.94;5089423;28;20434;-67
2022/07/02 04:54:02;;;;;;;2.25;2.08;;;;;;;11.27;100.00;96225.84;5090305;28;20034;-67
2022/07/02 04:56:27;;;;;;;3.42;1.60;;;;;;;11.15;100.00;96225.91;5089879;28;20048;-67
2022/07/02 04:58:54;;;;;;;1.77;1.67;;;;;;;11.20;100.00;96228.16;5091141;28;20517;-67
2022/07/02 05:01:20;;;;;;;1.60;1.50;;;;;;;11.23;100.00;96221.81;5110213;28;20023;-67
2022/07/02 05:03:45;;;;;;;1.48;1.40;;;;;;;11.22;100.00;96210.41;5109631;28;20035;-67
2022/07/02 05:06:11;;;;;;;2.90;1.60;;;;;;;11.21;100.00;96208.75;5109775;28;20019;-68
2022/07/02 05:08:36;;;;;;;2.13;1.63;;;;;;;11.27;100.00;96220.56;5110014;28;20106;-67
2022/07/02 05:11:01;;;;;;;1.30;1.30;;;;;;;11.36;100.00;96208.41;5110126;28;20406;-67
2022/07/02 05:13:27;;;;;;;1.80;1.70;;;;;;;11.52;100.00;96210.50;5110146;28;20051;-67
2022/07/02 05:15:52;;;;;;;1.52;1.50;;;;;;;11.74;100.00;96214.75;5109596;28;20055;-68
2022/07/02 05:18:18;;;;;;;4.10;1.90;;;;;;;11.94;100.00;96220.03;5109888;28;20049;-67
2022/07/02 05:20:43;;;;;;;1.77;1.67;;;;;;;12.10;99.43;96220.34;5109915;28;20027;-67
2022/07/02 05:23:09;;;;;;;1.73;1.63;;;;;;;12.23;99.01;96216.59;5109610;28;20020;-68
2022/07/02 05:25:34;;;;;;;2.15;1.80;;;;;;;12.38;97.33;96222.28;5109778;28;20024;-68
2022/07/02 05:28:00;;;;;;;2.17;1.60;;;;;;;12.46;96.80;96225.91;5109903;28;20031;-67
2022/07/02 05:30:25;;;;;;;2.28;1.30;;;;;;;12.56;95.18;96228.53;5109932;28;20024;-68
2022/07/02 05:32:51;;;;;;;1.95;1.52;;;;;;;12.65;94.59;96232.13;5109434;28;20028;-68
2022/07/02 05:35:16;;;;;;;1.35;1.35;;;;;;;12.71;93.80;96228.91;5109822;28;20023;-68
2022/07/02 05:37:42;;;;;;;1.73;1.70;;;;;;;12.83;93.77;96231.41;5109722;28;20026;-67
2022/07/02 05:40:08;;;;;;;2.10;1.90;;;;;;;12.95;93.27;96226.78;5110089;28;20478;-68
2022/07/02 05:42:33;;;;;;;1.65;1.60;;;;;;;13.08;93.34;96222.00;5113618;28;20047;-68
2022/07/02 05:44:58;;;;;;;3.40;1.58;;;;;;;13.20;92.22;96208.59;5113053;28;20100;-68
2022/07/02 05:47:24;;;;;;;5.70;1.50;;;;;;;13.35;91.08;96217.72;5113061;28;20033;-68
2022/07/02 05:49:49;;;;;;;2.55;1.52;;;;;;;13.52;90.86;96213.50;5112925;28;20031;-67
2022/07/02 05:52:17;;;;;;;3.97;1.42;;;;;;;13.65;90.66;96207.84;5113211;28;20475;-68
2022/07/02 05:54:45;;;;;;;3.25;1.30;;;;;;;13.71;90.24;96203.78;5104250;28;20108;-68
2022/07/02 05:57:10;;;;;;;4.63;1.42;;;;;;;13.79;89.32;96206.50;5092471;28;20043;-67
2022/07/02 05:59:36;;;;;;;1.30;1.20;;;;;;;13.88;88.09;96204.78;5100598;28;20024;-67
2022/07/02 06:02:05;;;;;;;4.07;1.50;;;;;;;13.96;87.25;96194.25;5099953;28;20051;-67
2022/07/02 06:04:31;;;;;;;1.50;1.40;;;;;;;14.07;86.36;96189.75;5091930;28;20036;-67
2022/07/02 06:09:41;;;;;;;1.20;1.20;;;;;;;14.28;84.33;96192.91;5085512;28;20039;-66
2022/07/02 06:12:07;;;;;;;2.83;1.30;;;;;;;14.32;83.66;96196.91;5094711;28;20021;-67
2022/07/02 06:14:33;;;;;;;1.67;0.95;;;;;;;14.32;84.00;96196.91;5102598;28;20032;-67
2022/07/02 06:16:59;;;;;;;1.63;1.40;;;;;;;14.44;83.31;96205.44;5108324;28;20023;-67
2022/07/02 06:19:24;;;;;;;1.10;1.10;;;;;;;14.60;82.16;96207.38;5102583;28;20078;-67
2022/07/02 06:21:49;;;;;;;1.10;1.10;;;;;;;14.75;81.71;96212.16;5112363;28;20034;-67
2022/07/02 06:24:15;;;;;;;0.98;0.98;;;;;;;15.00;79.07;96199.88;5112339;28;20019;-67
2022/07/02 06:26:40;;;;;;;2.58;1.08;;;;;;;15.17;78.05;96200.81;5101410;28;20017;-68
2022/07/02 06:29:06;;;;;;;1.88;1.08;;;;;;;15.33;77.26;96197.41;5096168;28;20024;-67
2022/07/02 06:31:32;;;;;;;1.50;1.20;;;;;;;15.73;77.37;96197.69;5093310;28;20012;-67
2022/07/02 06:33:57;;;;;;;1.10;1.10;;;;;;;16.05;76.66;96195.28;5103077;28;20035;-68
2022/07/02 06:36:24;;;;;;;3.67;1.02;;;;;;;16.44;76.17;96189.34;5103563;28;20080;-68
2022/07/02 06:38:50;;;;;;;1.85;1.38;;;;;;;16.86;74.17;96190.13;5091419;28;20020;-67
2022/07/02 06:42:18;;;;;;;1.23;1.00;;;;;;;17.15;71.69;96186.09;5089507;28;20020;-68
2022/07/02 06:44:01;;;;;;;1.85;1.10;;;;;;;17.51;70.14;96182.13;5086910;28;20032;-68
2022/07/02 06:46:26;;;;;;;0.82;0.82;;;;;;;17.85;69.03;96193.44;5088104;28;20093;-68
2022/07/02 06:48:52;;;;;;;1.40;0.82;;;;;;;18.18;66.67;96199.41;5091597;28;20008;-68
2022/07/02 06:51:17;;;;;;;0.82;0.82;;;;;;;18.66;64.85;96192.19;5079654;28;20484;-68
2022/07/02 06:53:42;;;;;;;0.88;0.88;;;;;;;19.00;63.95;96191.72;5091457;28;20012;-68
2022/07/02 06:56:08;;;;;;;0.73;0.73;;;;;;;19.30;61.91;96201.59;5073495;28;20063;-68
2022/07/02 06:58:33;;;;;;;3.15;0.80;;;;;;;19.62;60.29;96199.53;5104673;28;20094;-68
2022/07/02 07:00:59;;;;;;;3.50;0.90;;;;;;;19.67;60.59;96194.47;5111477;28;20026;-68
2022/07/02 07:03:24;;;;;;;0.88;0.82;;;;;;;19.95;59.90;96190.28;5111867;28;20031;-68
2022/07/02 07:05:49;;;;;;;0.68;0.68;;;;;;;20.13;58.37;96189.84;5111196;28;20122;-68
2022/07/02 07:08:15;;;;;;;0.90;0.90;;;;;;;20.23;59.42;96185.03;5111638;28;20110;-68
2022/07/02 07:10:41;;;;;;;1.95;1.63;;;;;;;20.41;56.58;96191.75;5111548;28;20047;-68
2022/07/02 07:13:06;;;;;;;7.55;3.63;;;;;;;20.65;57.12;96200.41;5111570;28;20456;-68
2022/07/02 07:15:32;;;;;;;1.40;1.40;;;;;;;20.78;55.54;96194.31;5111437;28;20042;-69
2022/07/02 07:17:57;;;;;;;1.90;1.58;;;;;;;20.83;57.36;96191.94;5111247;28;20073;-68
2022/07/02 07:20:27;;;;;;;2.20;0.80;;;;;;;20.92;54.31;96200.66;5111457;28;20039;-68
2022/07/02 07:22:53;;;;;;;0.70;0.70;;;;;;;20.55;54.51;96198.03;5111178;28;20038;-69
2022/07/02 07:25:19;;;;;;;1.13;1.00;;;;;;;20.77;56.74;96201.53;5087319;28;20028;-68
2022/07/02 07:27:45;;;;;;;1.00;0.90;;;;;;;20.82;52.73;96193.78;5099328;28;20114;-68
2022/07/02 07:30:11;;;;;;;0.90;0.90;;;;;;;20.98;54.26;96191.84;5082777;28;20103;-68
2022/07/02 07:32:36;;;;;;;0.80;0.80;;;;;;;21.09;53.30;96196.63;5104646;28;20024;-68
2022/07/02 07:35:02;;;;;;;2.45;0.90;;;;;;;21.18;52.45;96208.00;5085011;28;20021;-69
2022/07/02 07:37:27;;;;;;;0.80;0.80;;;;;;;21.30;53.70;96202.94;5083051;28;20024;-69
2022/07/02 07:39:52;;;;;;;2.30;1.10;;;;;;;21.32;53.30;96199.03;5089395;28;20761;-69
2022/07/02 07:42:18;;;;;;;2.75;0.90;;;;;;;21.34;52.05;96201.53;5084365;28;20032;-70
2022/07/02 07:44:43;;;;;;;4.68;0.82;;;;;;;21.49;52.31;96197.88;5083414;28;20028;-69
2022/07/02 07:47:08;;;;;;;0.88;0.82;;;;;;;21.23;52.32;96200.25;5097323;28;20032;-72
2022/07/02 07:49:34;;;;;;;1.88;0.90;;;;;;;21.55;52.36;96199.75;5092668;28;20036;-69
2022/07/02 07:51:59;;;;;;;0.82;0.82;;;;;;;21.66;52.38;96193.88;5089985;28;20085;-66
2022/07/02 07:54:25;;;;;;;1.77;1.00;;;;;;;22.05;49.71;96186.16;5090620;28;20032;-67
2022/07/02 07:56:50;;;;;;;2.58;1.02;;;;;;;21.93;50.04;96187.78;5085378;28;20058;-67
2022/07/02 07:59:16;;;;;;;4.32;1.15;;;;;;;22.17;48.27;96181.88;5096253;28;20070;-68
2022/07/02 08:01:41;;;;;;;1.20;0.80;;;;;;;22.02;49.28;96186.56;5107461;28;20084;-71
2022/07/02 08:04:07;;;;;;;1.15;1.10;;;;;;;22.18;50.01;96182.69;5101745;28;20102;-68
2022/07/02 08:06:32;;;;;;;1.48;1.35;;;;;;;22.16;49.04;96192.78;5106734;28;20015;-69
2022/07/02 08:08:59;;;;;;;1.30;1.20;;;;;;;22.36;48.60;96176.75;5098593;28;20034;-72
2022/07/02 08:11:25;;;;;;;3.78;1.10;;;;;;;22.57;47.76;96177.63;5084739;28;20450;-70
2022/07/02 08:13:50;;;;;;;1.02;1.02;;;;;;;22.57;48.56;96183.78;5103709;28;20068;-69
2022/07/02 08:16:16;;;;;;;1.02;1.02;;;;;;;22.28;48.09;96183.13;5105083;28;20039;-73
2022/07/02 08:18:42;;;;;;;1.15;0.90;;;;;;;22.31;47.92;96185.41;5090752;28;20107;-70
2022/07/02 08:21:07;;;;;;;0.93;0.85;;;;;;;22.41;48.01;96181.47;5105852;28;20059;-68
2022/07/02 08:23:32;;;;;;;0.93;0.93;;;;;;;22.55;48.75;96179.69;5102873;28;20513;-69
2022/07/02 08:25:58;;;;;;;1.00;1.00;;;;;;;22.95;46.72;96173.47;5090143;28;20406;-69
2022/07/02 08:28:23;;;;;;;1.88;1.05;;;;;;;23.25;47.81;96167.59;5085265;28;20024;-73
2022/07/02 08:30:49;;;;;;;1.23;1.13;;;;;;;23.44;45.33;96174.81;5086658;28;20058;-69
2022/07/02 08:33:16;;;;;;;1.00;1.00;;;;;;;23.29;46.75;96179.59;5087671;28;20051;-65
2022/07/02 08:35:43;;;;;;;1.95;0.82;;;;;;;23.16;46.83;96173.22;5086305;28;20467;-64
2022/07/02 08:38:08;;;;;;;1.00;1.00;;;;;;;23.23;47.77;96175.06;5077916;28;20028;-65
2022/07/02 08:40:33;;;;;;;1.00;1.00;;;;;;;23.46;46.54;96167.38;5079783;28;20031;-65
2022/07/02 08:43:00;;;;;;;1.10;1.00;;;;;;;23.71;46.99;96165.84;5079486;28;20044;-65
2022/07/02 08:45:30;;;;;;;1.10;1.10;;;;;;;23.99;45.14;96165.50;5083303;28;20028;-66
2022/07/02 08:47:56;;;;;;;1.30;1.20;;;;;;;23.62;46.56;96165.25;5089393;28;20074;-64
2022/07/02 08:50:23;;;;;;;1.10;1.00;;;;;;;23.81;45.67;96168.06;5089525;28;20024;-65
2022/07/02 08:52:52;;;;;;;1.38;1.33;;;;;;;23.83;46.09;96153.34;5089757;28;20028;-65
2022/07/02 08:55:20;;;;;;;1.15;1.15;;;;;;;24.07;45.80;96142.91;5090478;28;20028;-65
2022/07/02 08:57:47;;;;;;;1.33;1.00;;;;;;;24.05;45.51;96152.25;5089675;28;20052;-65
2022/07/02 09:00:13;;;;;;;1.00;1.00;;;;;;;24.50;44.31;96149.44;5102608;28;20028;-65
2022/07/02 09:02:41;;;;;;;1.10;1.02;;;;;;;24.30;46.13;96153.09;5109407;28;20398;-65
2022/07/02 09:05:09;;;;;;;1.10;1.00;;;;;;;24.52;44.61;96150.03;5109362;28;20028;-65
2022/07/02 09:07:36;;;;;;;1.30;1.20;;;;;;;24.27;44.62;96145.47;5109598;28;20494;-65
2022/07/02 09:10:03;;;;;;;1.20;1.10;;;;;;;24.59;43.53;96137.34;5109938;28;20356;-65
2022/07/02 09:12:29;;;;;;;1.17;1.10;;;;;;;24.55;43.75;96138.84;5109887;28;20031;-65
2022/07/02 09:14:55;;;;;;;2.35;1.10;;;;;;;24.36;46.41;96140.66;5110040;28;20019;-65
2022/07/02 09:17:21;;;;;;;1.20;1.20;;;;;;;24.98;46.15;96131.88;5114309;28;20083;-64
2022/07/02 09:19:46;;;;;;;1.67;1.35;;;;;;;25.34;42.39;96133.94;5113637;28;20023;-65
2022/07/02 09:22:12;;;;;;;1.08;1.08;;;;;;;25.79;41.26;96130.94;5113636;28;20553;-65
2022/07/02 09:24:42;;;;;;;1.40;1.30;;;;;;;25.50;42.29;96137.94;5113708;28;20031;-64
2022/07/02 09:27:09;;;;;;;0.90;0.90;;;;;;;25.73;41.01;96134.53;5113760;28;20016;-66
2022/07/02 09:29:45;;;;;;;1.15;1.15;;;;;;;25.09;42.39;96137.53;5113451;28;20083;-65
2022/07/02 09:32:12;;;;;;;2.15;1.25;;;;;;;25.29;43.06;96129.22;5113350;28;20054;-64
2022/07/02 09:34:43;;;;;;;1.00;1.00;;;;;;;25.58;43.58;96140.34;5094936;28;20054;-65
2022/07/02 09:37:17;;;;;;;2.05;1.30;;;;;;;26.36;41.47;96143.22;5113325;28;20031;-65
2022/07/02 09:39:43;;;;;;;1.48;1.10;;;;;;;26.46;39.66;96134.56;5113273;28;20028;-66
2022/07/02 09:42:22;;;;;;;1.00;1.00;;;;;;;26.45;40.69;96135.63;5113201;28;20024;-65
2022/07/02 09:44:47;;;;;;;0.90;0.90;;;;;;;26.15;40.31;96133.75;5113083;28;20027;-66
2022/07/02 09:47:13;;;;;;;1.27;1.17;;;;;;;25.66;41.76;96125.72;5113188;28;20072;-65
2022/07/02 09:49:48;;;;;;;1.23;1.13;;;;;;;25.33;40.54;96130.44;5094939;28;20023;-66
2022/07/02 09:52:15;;;;;;;3.10;1.20;;;;;;;25.74;41.31;96123.50;5086462;28;20028;-64
2022/07/02 09:54:42;;;;;;;2.35;0.93;;;;;;;25.89;41.37;96125.00;5104468;28;20157;-64
2022/07/02 09:57:09;;;;;;;0.85;0.85;;;;;;;26.32;41.10;96120.47;5075440;28;20044;-66
2022/07/02 09:59:36;;;;;;;1.40;1.20;;;;;;;26.56;39.42;96117.78;5113116;28;20031;-64
2022/07/02 10:02:01;;;;;;;1.25;1.13;;;;;;;27.26;39.73;96118.00;5112979;28;20502;-64
2022/07/02 10:04:33;;;;;;;1.48;1.15;;;;;;;27.21;38.65;96109.78;5112802;28;20027;-65
2022/07/02 10:07:00;;;;;;;1.20;1.10;;;;;;;27.24;38.22;96106.59;5112876;28;20027;-66
2022/07/02 10:09:27;;;;;;;1.15;1.10;;;;;;;27.05;40.13;96108.66;5096966;28;20032;-63
2022/07/02 10:11:54;;;;;;;1.63;1.30;;;;;;;27.29;41.41;96099.44;5102012;28;20521;-65
2022/07/02 10:14:20;;;;;;;1.40;1.23;;;;;;;27.78;40.18;96106.34;5086964;28;20028;-65
2022/07/02 10:16:47;;;;;;;1.67;1.58;;;;;;;27.80;39.27;96106.13;5080705;28;20023;-65
2022/07/02 10:19:14;;;;;;;2.63;1.30;;;;;;;28.47;37.18;96107.31;5097192;28;20023;-65
2022/07/02 10:21:39;;;;;;;1.00;1.00;;;;;;;28.70;38.08;96091.94;5100659;28;20035;-65
2022/07/02 10:24:06;;;;;;;2.47;1.30;;;;;;;28.52;38.49;96101.97;5096899;28;20032;-65
2022/07/02 10:26:32;;;;;;;0.80;0.80;;;;;;;28.54;38.79;96096.31;5089236;28;20036;-65
2022/07/02 10:29:03;;;;;;;1.10;1.10;;;;;;;28.90;37.17;96096.06;5088739;28;20170;-65
2022/07/02 10:31:37;;;;;;;1.20;1.10;;;;;;;28.74;37.15;96096.63;5072041;28;20600;-65
2022/07/02 10:34:19;;;;;;;1.40;1.00;;;;;;;28.74;36.58;96101.22;5095869;28;20034;-65
2022/07/02 10:36:45;;;;;;;1.75;1.13;;;;;;;28.83;35.56;96105.16;5086890;28;20094;-66
2022/07/02 10:39:15;;;;;;;2.13;1.20;;;;;;;29.05;35.95;96106.28;5089824;28;20119;-66
2022/07/02 10:41:41;;;;;;;0.95;0.95;;;;;;;28.71;37.58;96094.38;5092253;28;20087;-66
2022/07/02 10:44:09;;;;;;;1.15;1.00;;;;;;;28.93;38.67;96099.06;5090979;28;20031;-65
2022/07/02 10:46:36;;;;;;;2.30;0.90;;;;;;;28.96;35.28;96095.03;5094477;28;20024;-67
2022/07/02 10:49:03;;;;;;;1.40;0.82;;;;;;;28.86;35.50;96090.31;5086655;28;20028;-65
2022/07/02 10:51:32;;;;;;;2.38;0.90;;;;;;;28.90;35.15;96088.72;5096271;28;20103;-65
2022/07/02 10:54:07;;;;;;;1.00;1.00;;;;;;;29.35;35.47;96089.59;5088905;28;20020;-66
2022/07/02 10:56:49;;;;;;;1.00;1.00;;;;;;;29.41;35.29;96083.19;5088034;28;20062;-66
2022/07/02 10:59:24;;;;;;;0.93;0.93;;;;;;;29.65;35.01;96082.09;5089418;28;20119;-66
2022/07/02 11:02:10;;;;;;;1.67;1.00;;;;;;;29.40;35.07;96081.50;5087286;28;20440;-65
2022/07/02 11:04:36;;;;;;;1.25;1.10;;;;;;;29.53;34.09;96082.25;5100306;28;20582;-65
2022/07/02 11:07:04;;;;;;;1.60;0.93;;;;;;;29.43;37.30;96080.22;5091559;28;20499;-65
2022/07/02 11:09:30;;;;;;;1.00;1.00;;;;;;;29.95;33.40;96076.13;5092879;28;20024;-66
2022/07/02 11:12:00;;;;;;;0.95;0.95;;;;;;;29.73;33.39;96071.63;5085718;28;20024;-67
2022/07/02 11:14:27;;;;;;;3.45;1.00;;;;;;;29.15;34.28;96079.28;5091985;28;20016;-65
2022/07/02 11:16:53;;;;;;;1.10;0.93;;;;;;;29.61;34.05;96076.34;5092527;28;20034;-67
2022/07/02 11:19:27;;;;;;;1.13;1.00;;;;;;;29.02;35.16;96080.50;5095023;28;20560;-66
2022/07/02 11:21:58;;;;;;;1.45;1.30;;;;;;;29.48;34.81;96076.75;5091256;28;20032;-65
2022/07/02 11:24:25;;;;;;;1.08;1.08;;;;;;;29.62;34.98;96071.72;5085194;28;20410;-65
2022/07/02 11:26:51;;;;;;;2.08;0.90;;;;;;;29.71;34.12;96072.94;5096239;28;20030;-65
2022/07/02 11:29:17;;;;;;;1.02;0.98;;;;;;;30.54;31.85;96069.06;5090335;28;20024;-66
2022/07/02 11:31:46;;;;;;;2.55;1.00;;;;;;;30.09;31.05;96065.75;5087961;28;20032;-66